sensor_id;sensor_type;location;lat;lon;timestamp;temperature;humidity
29501;DHT22;16450;50.288;10.966;2022-07-06T00:01:48;21.10;40.40
29501;DHT22;16450;50.288;10.966;2022-07-06T00:04:51;21.10;40.40
29501;DHT22;16450;50.288;10.966;2022-07-06T00:07:51;21.00;40.90
29501;DHT22;16450;50.288;10.966;2022-07-06T00:10:52;21.00;41.10
29501;DHT22;16450;50.288;10.966;2022-07-06T00:13:52;20.90;41.10
29501;DHT22;16450;50.288;10.966;2022-07-06T00:16:53;20.90;41.20
29501;DHT22;16450;50.288;10.966;2022-07-06T00:19:54;20.70;41.10
29501;DHT22;16450;50.288;10.966;2022-07-06T00:22:54;20.70;41.40
29501;DHT22;16450;50.288;10.966;2022-07-06T00:25:55;20.60;41.30
29501;DHT22;16450;50.288;10.966;2022-07-06T00:28:55;20.50;41.20
29501;DHT22;16450;50.288;10.966;2022-07-06T00:31:56;20.40;41.40
29501;DHT22;16450;50.288;10.966;2022-07-06T00:34:56;20.30;41.70
29501;DHT22;16450;50.288;10.966;2022-07-06T00:37:57;20.30;42.00
29501;DHT22;16450;50.288;10.966;2022-07-06T00:40:57;20.10;41.80
29501;DHT22;16450;50.288;10.966;2022-07-06T00:43:58;20.00;41.80
29501;DHT22;16450;50.288;10.966;2022-07-06T00:46:59;20.00;42.00
29501;DHT22;16450;50.288;10.966;2022-07-06T00:50:00;19.90;42.20
29501;DHT22;16450;50.288;10.966;2022-07-06T00:53:20;19.80;42.30
29501;DHT22;16450;50.288;10.966;2022-07-06T00:56:21;19.80;42.40
29501;DHT22;16450;50.288;10.966;2022-07-06T00:59:23;19.70;42.60
29501;DHT22;16450;50.288;10.966;2022-07-06T01:02:24;19.70;42.80
29501;DHT22;16450;50.288;10.966;2022-07-06T01:05:25;19.60;42.90
29501;DHT22;16450;50.288;10.966;2022-07-06T01:08:25;19.60;43.00
29501;DHT22;16450;50.288;10.966;2022-07-06T01:11:26;19.60;43.20
29501;DHT22;16450;50.288;10.966;2022-07-06T01:14:27;19.60;43.40
29501;DHT22;16450;50.288;10.966;2022-07-06T01:17:28;19.50;43.70
29501;DHT22;16450;50.288;10.966;2022-07-06T01:20:29;19.50;43.80
29501;DHT22;16450;50.288;10.966;2022-07-06T01:23:29;19.50;44.00
29501;DHT22;16450;50.288;10.966;2022-07-06T01:26:30;19.40;43.80
29501;DHT22;16450;50.288;10.966;2022-07-06T01:29:32;19.40;43.90
29501;DHT22;16450;50.288;10.966;2022-07-06T01:32:33;19.40;44.10
29501;DHT22;16450;50.288;10.966;2022-07-06T01:35:35;19.30;44.10
29501;DHT22;16450;50.288;10.966;2022-07-06T01:38:48;19.30;44.80
29501;DHT22;16450;50.288;10.966;2022-07-06T01:41:49;19.20;45.20
29501;DHT22;16450;50.288;10.966;2022-07-06T01:44:49;19.20;44.70
29501;DHT22;16450;50.288;10.966;2022-07-06T01:47:50;19.00;44.70
29501;DHT22;16450;50.288;10.966;2022-07-06T01:50:50;19.00;44.80
29501;DHT22;16450;50.288;10.966;2022-07-06T01:53:51;18.90;44.90
29501;DHT22;16450;50.288;10.966;2022-07-06T01:56:52;18.80;45.00
29501;DHT22;16450;50.288;10.966;2022-07-06T01:59:52;18.70;45.10
29501;DHT22;16450;50.288;10.966;2022-07-06T02:02:53;18.60;45.00
29501;DHT22;16450;50.288;10.966;2022-07-06T02:05:53;18.60;45.00
29501;DHT22;16450;50.288;10.966;2022-07-06T02:08:54;18.40;44.80
29501;DHT22;16450;50.288;10.966;2022-07-06T02:11:54;18.40;44.90
29501;DHT22;16450;50.288;10.966;2022-07-06T02:14:55;18.30;45.10
29501;DHT22;16450;50.288;10.966;2022-07-06T02:17:55;18.30;45.30
29501;DHT22;16450;50.288;10.966;2022-07-06T02:20:56;18.20;45.30
29501;DHT22;16450;50.288;10.966;2022-07-06T02:23:57;18.20;45.40
29501;DHT22;16450;50.288;10.966;2022-07-06T02:26:57;18.20;45.60
29501;DHT22;16450;50.288;10.966;2022-07-06T02:29:58;18.10;45.80
29501;DHT22;16450;50.288;10.966;2022-07-06T02:32:58;18.10;45.80
29501;DHT22;16450;50.288;10.966;2022-07-06T02:35:59;18.10;45.80
29501;DHT22;16450;50.288;10.966;2022-07-06T02:39:00;18.10;46.00
29501;DHT22;16450;50.288;10.966;2022-07-06T02:42:00;18.10;46.30
29501;DHT22;16450;50.288;10.966;2022-07-06T02:45:01;18.00;46.40
29501;DHT22;16450;50.288;10.966;2022-07-06T02:48:02;18.00;46.60
29501;DHT22;16450;50.288;10.966;2022-07-06T02:51:03;18.00;46.60
29501;DHT22;16450;50.288;10.966;2022-07-06T02:54:03;17.90;46.60
29501;DHT22;16450;50.288;10.966;2022-07-06T02:57:04;17.90;46.70
29501;DHT22;16450;50.288;10.966;2022-07-06T03:00:05;17.80;46.80
29501;DHT22;16450;50.288;10.966;2022-07-06T03:03:06;17.70;46.80
29501;DHT22;16450;50.288;10.966;2022-07-06T03:06:07;17.70;47.00
29501;DHT22;16450;50.288;10.966;2022-07-06T03:09:08;17.60;47.00
29501;DHT22;16450;50.288;10.966;2022-07-06T03:12:09;17.60;47.10
29501;DHT22;16450;50.288;10.966;2022-07-06T03:15:10;17.50;47.30
29501;DHT22;16450;50.288;10.966;2022-07-06T03:18:10;17.40;47.30
29501;DHT22;16450;50.288;10.966;2022-07-06T03:21:11;17.40;47.40
29501;DHT22;16450;50.288;10.966;2022-07-06T03:24:12;17.30;47.40
29501;DHT22;16450;50.288;10.966;2022-07-06T03:27:12;17.20;47.40
29501;DHT22;16450;50.288;10.966;2022-07-06T03:30:13;17.20;47.60
29501;DHT22;16450;50.288;10.966;2022-07-06T03:33:14;17.00;47.60
29501;DHT22;16450;50.288;10.966;2022-07-06T03:36:15;17.00;47.70
29501;DHT22;16450;50.288;10.966;2022-07-06T03:39:16;17.00;48.00
29501;DHT22;16450;50.288;10.966;2022-07-06T03:42:16;16.90;48.10
29501;DHT22;16450;50.288;10.966;2022-07-06T03:45:17;16.80;48.20
29501;DHT22;16450;50.288;10.966;2022-07-06T03:48:17;16.80;48.40
29501;DHT22;16450;50.288;10.966;2022-07-06T03:51:18;16.70;48.60
29501;DHT22;16450;50.288;10.966;2022-07-06T03:54:18;16.70;48.60
29501;DHT22;16450;50.288;10.966;2022-07-06T03:57:19;16.70;48.60
29501;DHT22;16450;50.288;10.966;2022-07-06T04:00:21;16.60;48.50
29501;DHT22;16450;50.288;10.966;2022-07-06T04:03:22;16.60;48.60
29501;DHT22;16450;50.288;10.966;2022-07-06T04:06:23;16.60;48.90
29501;DHT22;16450;50.288;10.966;2022-07-06T04:09:24;16.60;49.10
29501;DHT22;16450;50.288;10.966;2022-07-06T04:12:26;16.60;49.40
29501;DHT22;16450;50.288;10.966;2022-07-06T04:15:26;16.60;49.80
29501;DHT22;16450;50.288;10.966;2022-07-06T04:18:27;16.60;49.80
29501;DHT22;16450;50.288;10.966;2022-07-06T04:21:27;16.60;49.80
29501;DHT22;16450;50.288;10.966;2022-07-06T04:24:28;16.60;50.00
29501;DHT22;16450;50.288;10.966;2022-07-06T04:27:29;16.70;50.00
29501;DHT22;16450;50.288;10.966;2022-07-06T04:30:29;16.70;49.90
29501;DHT22;16450;50.288;10.966;2022-07-06T04:33:30;16.70;50.10
29501;DHT22;16450;50.288;10.966;2022-07-06T04:36:31;16.80;50.40
29501;DHT22;16450;50.288;10.966;2022-07-06T04:39:31;16.90;50.50
29501;DHT22;16450;50.288;10.966;2022-07-06T04:42:32;16.90;50.60
29501;DHT22;16450;50.288;10.966;2022-07-06T04:45:32;17.00;50.60
29501;DHT22;16450;50.288;10.966;2022-07-06T04:48:33;17.10;50.70
29501;DHT22;16450;50.288;10.966;2022-07-06T04:51:36;17.10;50.60
29501;DHT22;16450;50.288;10.966;2022-07-06T04:54:37;17.10;50.60
29501;DHT22;16450;50.288;10.966;2022-07-06T04:57:38;17.30;50.80
29501;DHT22;16450;50.288;10.966;2022-07-06T05:00:38;17.30;50.80
29501;DHT22;16450;50.288;10.966;2022-07-06T05:03:39;17.30;50.50
29501;DHT22;16450;50.288;10.966;2022-07-06T05:06:41;17.40;50.70
29501;DHT22;16450;50.288;10.966;2022-07-06T05:09:41;17.40;50.70
29501;DHT22;16450;50.288;10.966;2022-07-06T05:12:42;17.50;50.80
29501;DHT22;16450;50.288;10.966;2022-07-06T05:15:42;17.60;50.80
29501;DHT22;16450;50.288;10.966;2022-07-06T05:18:43;17.70;51.00
29501;DHT22;16450;50.288;10.966;2022-07-06T05:21:44;17.70;51.00
29501;DHT22;16450;50.288;10.966;2022-07-06T05:24:44;17.80;50.90
29501;DHT22;16450;50.288;10.966;2022-07-06T05:27:45;17.90;51.00
29501;DHT22;16450;50.288;10.966;2022-07-06T05:30:45;18.00;51.10
29501;DHT22;16450;50.288;10.966;2022-07-06T05:33:46;18.10;51.40
29501;DHT22;16450;50.288;10.966;2022-07-06T05:36:47;18.20;50.80
29501;DHT22;16450;50.288;10.966;2022-07-06T05:39:47;18.40;51.70
29501;DHT22;16450;50.288;10.966;2022-07-06T05:42:49;18.80;52.90
29501;DHT22;16450;50.288;10.966;2022-07-06T05:45:50;19.30;53.00
29501;DHT22;16450;50.288;10.966;2022-07-06T05:48:50;19.80;52.60
29501;DHT22;16450;50.288;10.966;2022-07-06T05:52:09;20.30;51.80
29501;DHT22;16450;50.288;10.966;2022-07-06T05:55:11;20.80;51.00
29501;DHT22;16450;50.288;10.966;2022-07-06T05:58:12;21.10;50.00
29501;DHT22;16450;50.288;10.966;2022-07-06T06:01:13;21.30;49.50
29501;DHT22;16450;50.288;10.966;2022-07-06T06:04:13;21.40;48.80
29501;DHT22;16450;50.288;10.966;2022-07-06T06:07:14;21.50;48.50
29501;DHT22;16450;50.288;10.966;2022-07-06T06:10:15;21.60;48.50
29501;DHT22;16450;50.288;10.966;2022-07-06T06:13:16;21.60;48.20
29501;DHT22;16450;50.288;10.966;2022-07-06T06:16:16;21.80;48.60
29501;DHT22;16450;50.288;10.966;2022-07-06T06:19:17;22.10;48.80
29501;DHT22;16450;50.288;10.966;2022-07-06T06:22:17;22.40;48.40
29501;DHT22;16450;50.288;10.966;2022-07-06T06:25:20;22.60;47.70
29501;DHT22;16450;50.288;10.966;2022-07-06T06:28:21;22.70;46.80
29501;DHT22;16450;50.288;10.966;2022-07-06T06:31:21;22.80;47.00
29501;DHT22;16450;50.288;10.966;2022-07-06T06:34:22;23.00;47.50
29501;DHT22;16450;50.288;10.966;2022-07-06T06:37:23;23.20;46.90
29501;DHT22;16450;50.288;10.966;2022-07-06T06:40:23;23.40;46.70
29501;DHT22;16450;50.288;10.966;2022-07-06T06:43:24;23.60;46.30
29501;DHT22;16450;50.288;10.966;2022-07-06T06:46:25;23.70;45.40
29501;DHT22;16450;50.288;10.966;2022-07-06T06:49:25;23.80;44.80
29501;DHT22;16450;50.288;10.966;2022-07-06T06:52:26;23.80;44.50
29501;DHT22;16450;50.288;10.966;2022-07-06T06:55:27;23.80;43.80
29501;DHT22;16450;50.288;10.966;2022-07-06T06:58:27;23.70;43.60
29501;DHT22;16450;50.288;10.966;2022-07-06T07:01:28;23.70;44.50
29501;DHT22;16450;50.288;10.966;2022-07-06T07:04:29;23.80;45.00
29501;DHT22;16450;50.288;10.966;2022-07-06T07:07:31;23.80;43.90
29501;DHT22;16450;50.288;10.966;2022-07-06T07:10:32;23.80;43.70
29501;DHT22;16450;50.288;10.966;2022-07-06T07:13:33;23.70;43.30
29501;DHT22;16450;50.288;10.966;2022-07-06T07:16:33;23.60;43.50
29501;DHT22;16450;50.288;10.966;2022-07-06T07:19:34;23.50;43.50
29501;DHT22;16450;50.288;10.966;2022-07-06T07:22:35;23.50;43.50
29501;DHT22;16450;50.288;10.966;2022-07-06T07:25:35;23.40;43.50
29501;DHT22;16450;50.288;10.966;2022-07-06T07:28:38;23.50;44.10
29501;DHT22;16450;50.288;10.966;2022-07-06T07:31:39;23.60;44.90
29501;DHT22;16450;50.288;10.966;2022-07-06T07:34:40;23.90;45.00
29501;DHT22;16450;50.288;10.966;2022-07-06T07:37:40;24.20;44.40
29501;DHT22;16450;50.288;10.966;2022-07-06T07:40:41;24.40;44.10
29501;DHT22;16450;50.288;10.966;2022-07-06T07:43:42;24.50;43.30
29501;DHT22;16450;50.288;10.966;2022-07-06T07:46:42;24.60;42.50
29501;DHT22;16450;50.288;10.966;2022-07-06T07:49:43;24.70;42.30
29501;DHT22;16450;50.288;10.966;2022-07-06T07:52:44;24.80;43.00
29501;DHT22;16450;50.288;10.966;2022-07-06T07:55:45;25.10;43.30
29501;DHT22;16450;50.288;10.966;2022-07-06T07:58:45;25.40;43.50
29501;DHT22;16450;50.288;10.966;2022-07-06T08:01:46;25.80;43.20
29501;DHT22;16450;50.288;10.966;2022-07-06T08:04:46;26.10;42.30
29501;DHT22;16450;50.288;10.966;2022-07-06T08:07:47;26.40;41.60
29501;DHT22;16450;50.288;10.966;2022-07-06T08:10:47;26.50;40.60
29501;DHT22;16450;50.288;10.966;2022-07-06T08:13:48;26.50;40.70
29501;DHT22;16450;50.288;10.966;2022-07-06T08:16:49;26.70;40.90
29501;DHT22;16450;50.288;10.966;2022-07-06T08:19:49;26.80;40.50
29501;DHT22;16450;50.288;10.966;2022-07-06T08:22:50;26.90;40.20
29501;DHT22;16450;50.288;10.966;2022-07-06T08:25:50;26.90;39.30
29501;DHT22;16450;50.288;10.966;2022-07-06T08:28:51;26.80;38.60
29501;DHT22;16450;50.288;10.966;2022-07-06T08:31:52;26.60;38.30
29501;DHT22;16450;50.288;10.966;2022-07-06T08:34:52;26.30;38.00
29501;DHT22;16450;50.288;10.966;2022-07-06T08:37:53;26.20;38.70
29501;DHT22;16450;50.288;10.966;2022-07-06T08:40:54;26.00;38.70
29501;DHT22;16450;50.288;10.966;2022-07-06T08:43:55;25.90;39.00
29501;DHT22;16450;50.288;10.966;2022-07-06T08:46:58;25.80;38.50
29501;DHT22;16450;50.288;10.966;2022-07-06T08:50:02;25.60;38.60
29501;DHT22;16450;50.288;10.966;2022-07-06T08:53:03;25.50;38.90
29501;DHT22;16450;50.288;10.966;2022-07-06T08:56:04;25.40;39.00
29501;DHT22;16450;50.288;10.966;2022-07-06T08:59:04;25.40;39.80
29501;DHT22;16450;50.288;10.966;2022-07-06T09:02:10;25.50;40.40
29501;DHT22;16450;50.288;10.966;2022-07-06T09:05:15;25.60;39.80
29501;DHT22;16450;50.288;10.966;2022-07-06T09:08:18;25.90;40.10
29501;DHT22;16450;50.288;10.966;2022-07-06T09:11:24;26.20;40.20
29501;DHT22;16450;50.288;10.966;2022-07-06T09:14:26;26.50;39.60
29501;DHT22;16450;50.288;10.966;2022-07-06T09:17:28;26.80;39.90
29501;DHT22;16450;50.288;10.966;2022-07-06T09:20:29;27.00;38.50
29501;DHT22;16450;50.288;10.966;2022-07-06T09:23:30;27.00;37.40
29501;DHT22;16450;50.288;10.966;2022-07-06T09:26:31;26.90;36.80
29501;DHT22;16450;50.288;10.966;2022-07-06T09:29:32;26.60;37.00
29501;DHT22;16450;50.288;10.966;2022-07-06T09:32:45;26.50;36.90
29501;DHT22;16450;50.288;10.966;2022-07-06T09:35:46;26.50;37.20
29501;DHT22;16450;50.288;10.966;2022-07-06T09:38:48;26.60;38.00
29501;DHT22;16450;50.288;10.966;2022-07-06T09:41:51;26.80;37.40
29501;DHT22;16450;50.288;10.966;2022-07-06T09:44:53;26.90;36.60
29501;DHT22;16450;50.288;10.966;2022-07-06T09:47:54;26.90;36.30
29501;DHT22;16450;50.288;10.966;2022-07-06T09:50:57;26.90;36.00
29501;DHT22;16450;50.288;10.966;2022-07-06T09:53:58;27.00;36.10
29501;DHT22;16450;50.288;10.966;2022-07-06T09:56:59;27.00;35.60
29501;DHT22;16450;50.288;10.966;2022-07-06T10:00:00;26.90;34.70
29501;DHT22;16450;50.288;10.966;2022-07-06T10:03:01;26.80;35.00
29501;DHT22;16450;50.288;10.966;2022-07-06T10:06:02;26.70;34.60
29501;DHT22;16450;50.288;10.966;2022-07-06T10:09:06;26.70;33.90
29501;DHT22;16450;50.288;10.966;2022-07-06T10:12:09;26.40;33.30
29501;DHT22;16450;50.288;10.966;2022-07-06T10:15:12;26.20;34.30
29501;DHT22;16450;50.288;10.966;2022-07-06T10:18:14;26.10;34.90
29501;DHT22;16450;50.288;10.966;2022-07-06T10:21:16;26.10;35.30
29501;DHT22;16450;50.288;10.966;2022-07-06T10:24:18;26.20;35.60
29501;DHT22;16450;50.288;10.966;2022-07-06T10:27:19;26.30;35.80
29501;DHT22;16450;50.288;10.966;2022-07-06T10:30:20;26.50;34.90
29501;DHT22;16450;50.288;10.966;2022-07-06T10:33:22;26.50;33.90
29501;DHT22;16450;50.288;10.966;2022-07-06T10:36:23;26.40;33.70
29501;DHT22;16450;50.288;10.966;2022-07-06T10:39:36;26.30;33.40
29501;DHT22;16450;50.288;10.966;2022-07-06T10:43:01;26.10;33.20
29501;DHT22;16450;50.288;10.966;2022-07-06T10:46:09;25.90;33.80
29501;DHT22;16450;50.288;10.966;2022-07-06T10:49:15;25.90;34.10
29501;DHT22;16450;50.288;10.966;2022-07-06T10:52:17;25.90;34.10
29501;DHT22;16450;50.288;10.966;2022-07-06T10:55:38;26.00;34.60
29501;DHT22;16450;50.288;10.966;2022-07-06T10:58:49;26.10;34.20
29501;DHT22;16450;50.288;10.966;2022-07-06T11:05:57;26.30;34.00
29501;DHT22;16450;50.288;10.966;2022-07-06T11:09:00;26.40;33.90
29501;DHT22;16450;50.288;10.966;2022-07-06T11:12:12;26.50;33.50
29501;DHT22;16450;50.288;10.966;2022-07-06T11:15:48;26.50;32.80
29501;DHT22;16450;50.288;10.966;2022-07-06T11:19:04;26.50;32.90
29501;DHT22;16450;50.288;10.966;2022-07-06T11:22:07;26.60;32.20
29501;DHT22;16450;50.288;10.966;2022-07-06T11:25:08;26.70;32.60
29501;DHT22;16450;50.288;10.966;2022-07-06T11:28:10;26.70;32.40
29501;DHT22;16450;50.288;10.966;2022-07-06T11:31:14;26.70;31.80
29501;DHT22;16450;50.288;10.966;2022-07-06T11:34:26;26.70;31.60
29501;DHT22;16450;50.288;10.966;2022-07-06T11:37:27;26.60;31.20
29501;DHT22;16450;50.288;10.966;2022-07-06T11:40:27;26.50;31.90
29501;DHT22;16450;50.288;10.966;2022-07-06T11:43:30;26.50;31.80
29501;DHT22;16450;50.288;10.966;2022-07-06T11:46:34;26.40;32.20
29501;DHT22;16450;50.288;10.966;2022-07-06T11:49:37;26.40;31.60
29501;DHT22;16450;50.288;10.966;2022-07-06T11:52:38;26.40;32.00
29501;DHT22;16450;50.288;10.966;2022-07-06T11:55:39;26.30;31.80
29501;DHT22;16450;50.288;10.966;2022-07-06T11:58:40;26.30;31.70
29501;DHT22;16450;50.288;10.966;2022-07-06T12:01:42;26.30;31.90
29501;DHT22;16450;50.288;10.966;2022-07-06T12:04:45;26.40;32.10
29501;DHT22;16450;50.288;10.966;2022-07-06T12:07:46;26.40;31.90
29501;DHT22;16450;50.288;10.966;2022-07-06T12:10:46;26.40;31.80
29501;DHT22;16450;50.288;10.966;2022-07-06T12:13:48;26.40;32.50
29501;DHT22;16450;50.288;10.966;2022-07-06T12:16:50;26.40;32.20
29501;DHT22;16450;50.288;10.966;2022-07-06T12:19:54;26.50;31.80
29501;DHT22;16450;50.288;10.966;2022-07-06T12:23:06;26.60;31.70
29501;DHT22;16450;50.288;10.966;2022-07-06T12:26:09;26.60;31.30
29501;DHT22;16450;50.288;10.966;2022-07-06T12:29:11;26.70;31.30
29501;DHT22;16450;50.288;10.966;2022-07-06T12:32:20;26.70;31.00
29501;DHT22;16450;50.288;10.966;2022-07-06T12:35:22;26.50;30.70
29501;DHT22;16450;50.288;10.966;2022-07-06T12:38:25;26.40;30.80
29501;DHT22;16450;50.288;10.966;2022-07-06T12:41:33;26.30;31.10
29501;DHT22;16450;50.288;10.966;2022-07-06T12:44:45;26.20;30.70
29501;DHT22;16450;50.288;10.966;2022-07-06T12:48:05;26.20;31.10
29501;DHT22;16450;50.288;10.966;2022-07-06T12:51:06;26.10;31.30
29501;DHT22;16450;50.288;10.966;2022-07-06T12:54:14;26.20;31.70
29501;DHT22;16450;50.288;10.966;2022-07-06T12:57:21;26.30;31.80
29501;DHT22;16450;50.288;10.966;2022-07-06T13:00:25;26.20;31.30
29501;DHT22;16450;50.288;10.966;2022-07-06T13:03:26;26.20;31.20
29501;DHT22;16450;50.288;10.966;2022-07-06T13:06:34;26.10;30.80
29501;DHT22;16450;50.288;10.966;2022-07-06T13:09:34;26.10;30.70
29501;DHT22;16450;50.288;10.966;2022-07-06T13:12:35;26.10;30.70
29501;DHT22;16450;50.288;10.966;2022-07-06T13:15:36;26.10;30.50
29501;DHT22;16450;50.288;10.966;2022-07-06T13:18:37;26.10;31.30
29501;DHT22;16450;50.288;10.966;2022-07-06T13:21:38;26.10;31.40
29501;DHT22;16450;50.288;10.966;2022-07-06T13:24:39;26.30;31.50
29501;DHT22;16450;50.288;10.966;2022-07-06T13:27:39;26.40;31.10
29501;DHT22;16450;50.288;10.966;2022-07-06T13:30:40;26.60;30.80
29501;DHT22;16450;50.288;10.966;2022-07-06T13:33:40;26.80;30.50
29501;DHT22;16450;50.288;10.966;2022-07-06T13:36:41;26.90;30.20
29501;DHT22;16450;50.288;10.966;2022-07-06T13:39:42;27.00;30.00
29501;DHT22;16450;50.288;10.966;2022-07-06T13:42:42;27.10;29.90
29501;DHT22;16450;50.288;10.966;2022-07-06T13:45:43;27.10;30.00
29501;DHT22;16450;50.288;10.966;2022-07-06T13:48:43;27.10;29.50
29501;DHT22;16450;50.288;10.966;2022-07-06T13:51:44;27.10;29.30
29501;DHT22;16450;50.288;10.966;2022-07-06T13:54:45;27.00;29.40
29501;DHT22;16450;50.288;10.966;2022-07-06T13:57:45;27.00;29.40
29501;DHT22;16450;50.288;10.966;2022-07-06T14:00:48;27.00;29.70
29501;DHT22;16450;50.288;10.966;2022-07-06T14:03:49;27.00;29.40
29501;DHT22;16450;50.288;10.966;2022-07-06T14:06:49;27.00;29.40
29501;DHT22;16450;50.288;10.966;2022-07-06T14:09:50;27.00;29.00
29501;DHT22;16450;50.288;10.966;2022-07-06T14:12:52;26.90;29.10
29501;DHT22;16450;50.288;10.966;2022-07-06T14:15:53;26.70;28.90
29501;DHT22;16450;50.288;10.966;2022-07-06T14:18:54;26.60;29.20
29501;DHT22;16450;50.288;10.966;2022-07-06T14:21:54;26.60;29.40
29501;DHT22;16450;50.288;10.966;2022-07-06T14:24:55;26.60;29.40
29501;DHT22;16450;50.288;10.966;2022-07-06T14:27:55;26.50;29.40
29501;DHT22;16450;50.288;10.966;2022-07-06T14:30:56;26.50;29.50
29501;DHT22;16450;50.288;10.966;2022-07-06T14:33:57;26.60;29.70
29501;DHT22;16450;50.288;10.966;2022-07-06T14:36:57;26.60;29.50
29501;DHT22;16450;50.288;10.966;2022-07-06T14:39:58;26.60;29.60
29501;DHT22;16450;50.288;10.966;2022-07-06T14:42:59;26.60;29.60
29501;DHT22;16450;50.288;10.966;2022-07-06T14:46:00;26.70;29.50
29501;DHT22;16450;50.288;10.966;2022-07-06T14:49:01;26.80;29.40
29501;DHT22;16450;50.288;10.966;2022-07-06T14:52:01;26.90;29.10
29501;DHT22;16450;50.288;10.966;2022-07-06T14:55:02;26.90;28.80
29501;DHT22;16450;50.288;10.966;2022-07-06T14:58:03;26.90;29.00
29501;DHT22;16450;50.288;10.966;2022-07-06T15:01:04;26.90;28.70
29501;DHT22;16450;50.288;10.966;2022-07-06T15:04:04;26.90;28.80
29501;DHT22;16450;50.288;10.966;2022-07-06T15:07:05;26.70;28.50
29501;DHT22;16450;50.288;10.966;2022-07-06T15:10:06;26.60;28.70
29501;DHT22;16450;50.288;10.966;2022-07-06T15:13:07;26.50;28.60
29501;DHT22;16450;50.288;10.966;2022-07-06T15:16:08;26.50;28.70
29501;DHT22;16450;50.288;10.966;2022-07-06T15:19:08;26.50;28.80
29501;DHT22;16450;50.288;10.966;2022-07-06T15:22:10;26.60;29.00
29501;DHT22;16450;50.288;10.966;2022-07-06T15:25:11;26.60;29.10
29501;DHT22;16450;50.288;10.966;2022-07-06T15:28:11;26.70;29.20
29501;DHT22;16450;50.288;10.966;2022-07-06T15:31:14;26.70;28.80
29501;DHT22;16450;50.288;10.966;2022-07-06T15:34:14;26.80;28.60
29501;DHT22;16450;50.288;10.966;2022-07-06T15:37:15;26.90;28.70
29501;DHT22;16450;50.288;10.966;2022-07-06T15:40:16;27.00;28.80
29501;DHT22;16450;50.288;10.966;2022-07-06T15:43:24;27.00;28.60
29501;DHT22;16450;50.288;10.966;2022-07-06T15:46:25;27.00;28.70
29501;DHT22;16450;50.288;10.966;2022-07-06T15:49:25;27.00;28.90
29501;DHT22;16450;50.288;10.966;2022-07-06T15:52:26;27.00;28.70
29501;DHT22;16450;50.288;10.966;2022-07-06T15:55:27;27.00;28.70
29501;DHT22;16450;50.288;10.966;2022-07-06T15:58:28;27.00;28.40
29501;DHT22;16450;50.288;10.966;2022-07-06T16:01:28;27.00;28.60
29501;DHT22;16450;50.288;10.966;2022-07-06T16:04:29;26.90;28.40
29501;DHT22;16450;50.288;10.966;2022-07-06T16:07:29;26.90;28.50
29501;DHT22;16450;50.288;10.966;2022-07-06T16:10:30;26.80;28.70
29501;DHT22;16450;50.288;10.966;2022-07-06T16:13:31;26.70;28.40
29501;DHT22;16450;50.288;10.966;2022-07-06T16:16:31;26.60;28.20
29501;DHT22;16450;50.288;10.966;2022-07-06T16:19:33;26.50;28.40
29501;DHT22;16450;50.288;10.966;2022-07-06T16:22:33;26.30;28.50
29501;DHT22;16450;50.288;10.966;2022-07-06T16:25:34;26.20;28.50
29501;DHT22;16450;50.288;10.966;2022-07-06T16:28:35;25.90;28.50
29501;DHT22;16450;50.288;10.966;2022-07-06T16:31:36;25.80;28.80
29501;DHT22;16450;50.288;10.966;2022-07-06T16:34:37;25.70;28.80
29501;DHT22;16450;50.288;10.966;2022-07-06T16:37:37;25.60;28.80
29501;DHT22;16450;50.288;10.966;2022-07-06T16:40:38;25.60;28.80
29501;DHT22;16450;50.288;10.966;2022-07-06T16:43:39;25.50;28.90
29501;DHT22;16450;50.288;10.966;2022-07-06T16:46:39;25.40;28.90
29501;DHT22;16450;50.288;10.966;2022-07-06T16:49:40;25.30;29.00
29501;DHT22;16450;50.288;10.966;2022-07-06T16:52:41;25.30;29.00
29501;DHT22;16450;50.288;10.966;2022-07-06T16:55:41;25.20;29.10
29501;DHT22;16450;50.288;10.966;2022-07-06T16:58:42;25.20;29.10
29501;DHT22;16450;50.288;10.966;2022-07-06T17:01:43;25.20;29.10
29501;DHT22;16450;50.288;10.966;2022-07-06T17:04:44;25.20;29.30
29501;DHT22;16450;50.288;10.966;2022-07-06T17:07:45;25.10;29.30
29501;DHT22;16450;50.288;10.966;2022-07-06T17:10:45;25.10;29.40
29501;DHT22;16450;50.288;10.966;2022-07-06T17:13:46;25.10;29.40
29501;DHT22;16450;50.288;10.966;2022-07-06T17:16:47;25.10;29.30
29501;DHT22;16450;50.288;10.966;2022-07-06T17:19:47;25.00;29.30
29501;DHT22;16450;50.288;10.966;2022-07-06T17:22:48;25.00;29.20
29501;DHT22;16450;50.288;10.966;2022-07-06T17:25:49;24.90;29.40
29501;DHT22;16450;50.288;10.966;2022-07-06T17:28:50;24.90;29.30
29501;DHT22;16450;50.288;10.966;2022-07-06T17:31:51;24.80;29.20
29501;DHT22;16450;50.288;10.966;2022-07-06T17:34:52;24.70;29.20
29501;DHT22;16450;50.288;10.966;2022-07-06T17:37:53;24.60;29.30
29501;DHT22;16450;50.288;10.966;2022-07-06T17:40:53;24.50;29.30
29501;DHT22;16450;50.288;10.966;2022-07-06T17:43:54;24.50;29.40
29501;DHT22;16450;50.288;10.966;2022-07-06T17:46:54;24.40;29.40
29501;DHT22;16450;50.288;10.966;2022-07-06T17:49:55;24.40;29.50
29501;DHT22;16450;50.288;10.966;2022-07-06T17:52:56;24.20;29.60
29501;DHT22;16450;50.288;10.966;2022-07-06T17:55:56;24.10;29.70
29501;DHT22;16450;50.288;10.966;2022-07-06T17:58:57;24.00;29.80
29501;DHT22;16450;50.288;10.966;2022-07-06T18:01:59;23.90;30.00
29501;DHT22;16450;50.288;10.966;2022-07-06T18:04:59;23.80;30.10
29501;DHT22;16450;50.288;10.966;2022-07-06T18:08:00;23.70;30.30
29501;DHT22;16450;50.288;10.966;2022-07-06T18:11:01;23.60;30.30
29501;DHT22;16450;50.288;10.966;2022-07-06T18:14:02;23.60;30.50
29501;DHT22;16450;50.288;10.966;2022-07-06T18:17:03;23.50;30.70
29501;DHT22;16450;50.288;10.966;2022-07-06T18:20:04;23.40;30.70
29501;DHT22;16450;50.288;10.966;2022-07-06T18:23:05;23.40;30.90
29501;DHT22;16450;50.288;10.966;2022-07-06T18:26:05;23.30;30.80
29501;DHT22;16450;50.288;10.966;2022-07-06T18:29:07;23.30;30.90
29501;DHT22;16450;50.288;10.966;2022-07-06T18:32:09;23.20;31.00
29501;DHT22;16450;50.288;10.966;2022-07-06T18:35:10;23.10;31.00
29501;DHT22;16450;50.288;10.966;2022-07-06T18:38:11;23.10;31.00
29501;DHT22;16450;50.288;10.966;2022-07-06T18:41:12;23.10;31.10
29501;DHT22;16450;50.288;10.966;2022-07-06T18:44:12;23.00;31.30
29501;DHT22;16450;50.288;10.966;2022-07-06T18:47:13;22.90;31.20
29501;DHT22;16450;50.288;10.966;2022-07-06T18:50:14;22.80;31.20
29501;DHT22;16450;50.288;10.966;2022-07-06T18:53:15;22.70;31.30